sensor_id;sensor_type;location;lat;lon;timestamp;pressure;altitude;pressure_sealevel;temperature
15607;BMP180;7865;50.918;4.510;2023-03-20T00:00:29;101499.00;;;4.80
15607;BMP180;7865;50.918;4.510;2023-03-20T00:05:32;101485.00;;;4.80
15607;BMP180;7865;50.918;4.510;2023-03-20T00:10:36;101487.00;;;4.90
15607;BMP180;7865;50.918;4.510;2023-03-20T00:15:42;101481.00;;;5.00
15607;BMP180;7865;50.918;4.510;2023-03-20T00:20:45;101486.00;;;5.00
15607;BMP180;7865;50.918;4.510;2023-03-20T00:25:48;101472.00;;;4.90
15607;BMP180;7865;50.918;4.510;2023-03-20T00:30:50;101488.00;;;4.90
15607;BMP180;7865;50.918;4.510;2023-03-20T00:35:54;101488.00;;;5.00
15607;BMP180;7865;50.918;4.510;2023-03-20T00:40:56;101495.00;;;5.00
15607;BMP180;7865;50.918;4.510;2023-03-20T00:45:58;101518.00;;;5.00
15607;BMP180;7865;50.918;4.510;2023-03-20T00:51:01;101532.00;;;4.90
15607;BMP180;7865;50.918;4.510;2023-03-20T00:56:03;101515.00;;;5.00
15607;BMP180;7865;50.918;4.510;2023-03-20T01:01:07;101481.00;;;5.30
15607;BMP180;7865;50.918;4.510;2023-03-20T01:06:11;101495.00;;;5.40
15607;BMP180;7865;50.918;4.510;2023-03-20T01:11:15;101487.00;;;5.60
15607;BMP180;7865;50.918;4.510;2023-03-20T01:16:24;101469.00;;;5.60
15607;BMP180;7865;50.918;4.510;2023-03-20T01:21:27;101459.00;;;5.60
15607;BMP180;7865;50.918;4.510;2023-03-20T01:26:31;101485.00;;;5.70
15607;BMP180;7865;50.918;4.510;2023-03-20T01:31:34;101494.00;;;5.70
15607;BMP180;7865;50.918;4.510;2023-03-20T01:36:38;101476.00;;;5.80
15607;BMP180;7865;50.918;4.510;2023-03-20T01:41:41;101468.00;;;5.90
15607;BMP180;7865;50.918;4.510;2023-03-20T01:46:43;101466.00;;;6.00
15607;BMP180;7865;50.918;4.510;2023-03-20T01:51:51;101488.00;;;6.00
15607;BMP180;7865;50.918;4.510;2023-03-20T01:57:02;101487.00;;;6.10
15607;BMP180;7865;50.918;4.510;2023-03-20T02:02:08;101496.00;;;6.20
15607;BMP180;7865;50.918;4.510;2023-03-20T02:07:12;101501.00;;;6.30
15607;BMP180;7865;50.918;4.510;2023-03-20T02:12:37;101498.00;;;6.30
15607;BMP180;7865;50.918;4.510;2023-03-20T02:17:41;101474.00;;;6.30
15607;BMP180;7865;50.918;4.510;2023-03-20T02:33:51;101473.00;;;6.20
15607;BMP180;7865;50.918;4.510;2023-03-20T02:39:34;101468.00;;;6.10
15607;BMP180;7865;50.918;4.510;2023-03-20T02:55:30;101452.00;;;5.90
15607;BMP180;7865;50.918;4.510;2023-03-20T03:05:59;101450.00;;;5.70
15607;BMP180;7865;50.918;4.510;2023-03-20T03:11:05;101442.00;;;5.70
15607;BMP180;7865;50.918;4.510;2023-03-20T03:16:14;101438.00;;;5.70
15607;BMP180;7865;50.918;4.510;2023-03-20T03:21:19;101441.00;;;5.60
15607;BMP180;7865;50.918;4.510;2023-03-20T03:26:27;101439.00;;;5.60
15607;BMP180;7865;50.918;4.510;2023-03-20T03:31:32;101434.00;;;5.50
15607;BMP180;7865;50.918;4.510;2023-03-20T03:36:39;101442.00;;;5.60
15607;BMP180;7865;50.918;4.510;2023-03-20T03:47:17;101448.00;;;5.70
15607;BMP180;7865;50.918;4.510;2023-03-20T03:52:22;101439.00;;;5.70
15607;BMP180;7865;50.918;4.510;2023-03-20T03:57:33;101430.00;;;5.70
15607;BMP180;7865;50.918;4.510;2023-03-20T04:02:46;101444.00;;;5.70
15607;BMP180;7865;50.918;4.510;2023-03-20T04:07:53;101435.00;;;5.70
15607;BMP180;7865;50.918;4.510;2023-03-20T04:12:56;101445.00;;;5.70
15607;BMP180;7865;50.918;4.510;2023-03-20T04:17:58;101435.00;;;5.70
15607;BMP180;7865;50.918;4.510;2023-03-20T04:23:00;101436.00;;;5.70
15607;BMP180;7865;50.918;4.510;2023-03-20T04:28:04;101437.00;;;5.80
15607;BMP180;7865;50.918;4.510;2023-03-20T04:33:31;101434.00;;;5.80
15607;BMP180;7865;50.918;4.510;2023-03-20T04:38:56;101445.00;;;5.80
15607;BMP180;7865;50.918;4.510;2023-03-20T04:43:59;101432.00;;;5.80
15607;BMP180;7865;50.918;4.510;2023-03-20T04:49:02;101419.00;;;5.80
15607;BMP180;7865;50.918;4.510;2023-03-20T04:54:04;101423.00;;;5.80
15607;BMP180;7865;50.918;4.510;2023-03-20T04:59:07;101416.00;;;5.80
15607;BMP180;7865;50.918;4.510;2023-03-20T05:04:09;101400.00;;;5.90
15607;BMP180;7865;50.918;4.510;2023-03-20T05:09:11;101414.00;;;5.90
15607;BMP180;7865;50.918;4.510;2023-03-20T05:14:13;101408.00;;;5.90
15607;BMP180;7865;50.918;4.510;2023-03-20T05:19:40;101408.00;;;5.90
15607;BMP180;7865;50.918;4.510;2023-03-20T05:24:47;101403.00;;;5.90
15607;BMP180;7865;50.918;4.510;2023-03-20T05:30:13;101398.00;;;6.00
15607;BMP180;7865;50.918;4.510;2023-03-20T05:35:37;101393.00;;;6.00
15607;BMP180;7865;50.918;4.510;2023-03-20T05:40:59;101401.00;;;6.00
15607;BMP180;7865;50.918;4.510;2023-03-20T05:46:13;101407.00;;;6.00
15607;BMP180;7865;50.918;4.510;2023-03-20T05:51:33;101414.00;;;6.00
15607;BMP180;7865;50.918;4.510;2023-03-20T05:57:01;101413.00;;;6.00
15607;BMP180;7865;50.918;4.510;2023-03-20T06:02:24;101423.00;;;6.10
15607;BMP180;7865;50.918;4.510;2023-03-20T06:07:40;101433.00;;;6.30
15607;BMP180;7865;50.918;4.510;2023-03-20T06:12:46;101427.00;;;6.40
15607;BMP180;7865;50.918;4.510;2023-03-20T06:17:49;101430.00;;;6.50
15607;BMP180;7865;50.918;4.510;2023-03-20T06:22:52;101429.00;;;6.70
15607;BMP180;7865;50.918;4.510;2023-03-20T06:27:57;101431.00;;;6.90
15607;BMP180;7865;50.918;4.510;2023-03-20T06:32:59;101437.00;;;7.10
15607;BMP180;7865;50.918;4.510;2023-03-20T06:38:11;101443.00;;;7.20
15607;BMP180;7865;50.918;4.510;2023-03-20T06:43:13;101436.00;;;7.20
15607;BMP180;7865;50.918;4.510;2023-03-20T06:48:22;101432.00;;;7.10
15607;BMP180;7865;50.918;4.510;2023-03-20T06:53:26;101444.00;;;7.10
15607;BMP180;7865;50.918;4.510;2023-03-20T06:58:35;101456.00;;;7.10
15607;BMP180;7865;50.918;4.510;2023-03-20T07:03:38;101457.00;;;7.20
15607;BMP180;7865;50.918;4.510;2023-03-20T07:08:41;101461.00;;;7.40
15607;BMP180;7865;50.918;4.510;2023-03-20T07:13:43;101466.00;;;7.60
15607;BMP180;7865;50.918;4.510;2023-03-20T07:19:00;101475.00;;;7.80
15607;BMP180;7865;50.918;4.510;2023-03-20T07:24:08;101466.00;;;7.80
15607;BMP180;7865;50.918;4.510;2023-03-20T07:29:10;101457.00;;;8.00
15607;BMP180;7865;50.918;4.510;2023-03-20T07:34:13;101461.00;;;8.10
15607;BMP180;7865;50.918;4.510;2023-03-20T07:39:18;101464.00;;;8.40
15607;BMP180;7865;50.918;4.510;2023-03-20T07:44:31;101470.00;;;8.60
15607;BMP180;7865;50.918;4.510;2023-03-20T07:49:34;101467.00;;;8.90
15607;BMP180;7865;50.918;4.510;2023-03-20T07:54:37;101462.00;;;9.00
15607;BMP180;7865;50.918;4.510;2023-03-20T07:59:39;101461.00;;;9.20
15607;BMP180;7865;50.918;4.510;2023-03-20T08:04:42;101471.00;;;9.10
15607;BMP180;7865;50.918;4.510;2023-03-20T08:09:44;101472.00;;;8.90
15607;BMP180;7865;50.918;4.510;2023-03-20T08:14:46;101473.00;;;8.80
15607;BMP180;7865;50.918;4.510;2023-03-20T08:19:48;101478.00;;;8.70
15607;BMP180;7865;50.918;4.510;2023-03-20T08:24:50;101488.00;;;8.50
15607;BMP180;7865;50.918;4.510;2023-03-20T08:29:52;101490.00;;;8.30
15607;BMP180;7865;50.918;4.510;2023-03-20T08:34:55;101492.00;;;8.40
15607;BMP180;7865;50.918;4.510;2023-03-20T08:39:57;101499.00;;;8.40
15607;BMP180;7865;50.918;4.510;2023-03-20T08:44:59;101496.00;;;8.60
15607;BMP180;7865;50.918;4.510;2023-03-20T08:50:01;101502.00;;;8.80
15607;BMP180;7865;50.918;4.510;2023-03-20T08:55:04;101514.00;;;9.10
15607;BMP180;7865;50.918;4.510;2023-03-20T09:00:10;101506.00;;;9.40
15607;BMP180;7865;50.918;4.510;2023-03-20T09:05:16;101501.00;;;9.60
15607;BMP180;7865;50.918;4.510;2023-03-20T09:10:18;101513.00;;;9.40
15607;BMP180;7865;50.918;4.510;2023-03-20T09:15:20;101510.00;;;9.20
15607;BMP180;7865;50.918;4.510;2023-03-20T09:20:22;101516.00;;;9.60
15607;BMP180;7865;50.918;4.510;2023-03-20T09:25:24;101509.00;;;10.10
15607;BMP180;7865;50.918;4.510;2023-03-20T09:30:27;101517.00;;;10.20
15607;BMP180;7865;50.918;4.510;2023-03-20T09:35:29;101509.00;;;10.40
15607;BMP180;7865;50.918;4.510;2023-03-20T09:40:55;101516.00;;;10.70
15607;BMP180;7865;50.918;4.510;2023-03-20T09:51:30;101503.00;;;11.70
15607;BMP180;7865;50.918;4.510;2023-03-20T09:56:35;101505.00;;;11.60
15607;BMP180;7865;50.918;4.510;2023-03-20T10:02:11;101501.00;;;11.50
15607;BMP180;7865;50.918;4.510;2023-03-20T10:07:16;101500.00;;;11.60
15607;BMP180;7865;50.918;4.510;2023-03-20T10:12:41;101491.00;;;12.00
15607;BMP180;7865;50.918;4.510;2023-03-20T10:17:50;101494.00;;;12.30
15607;BMP180;7865;50.918;4.510;2023-03-20T10:23:04;101480.00;;;12.60
15607;BMP180;7865;50.918;4.510;2023-03-20T10:28:30;101472.00;;;12.50
15607;BMP180;7865;50.918;4.510;2023-03-20T10:33:49;101468.00;;;12.40
15607;BMP180;7865;50.918;4.510;2023-03-20T10:39:00;101469.00;;;12.40
15607;BMP180;7865;50.918;4.510;2023-03-20T10:44:05;101462.00;;;12.60
15607;BMP180;7865;50.918;4.510;2023-03-20T10:54:34;101444.00;;;13.00
15607;BMP180;7865;50.918;4.510;2023-03-20T10:59:44;101446.00;;;13.50
15607;BMP180;7865;50.918;4.510;2023-03-20T11:04:49;101431.00;;;13.50
15607;BMP180;7865;50.918;4.510;2023-03-20T11:15:33;101420.00;;;13.10
15607;BMP180;7865;50.918;4.510;2023-03-20T11:20:48;101410.00;;;13.20
15607;BMP180;7865;50.918;4.510;2023-03-20T11:36:11;101406.00;;;15.60
15607;BMP180;7865;50.918;4.510;2023-03-20T11:41:25;101406.00;;;15.50
15607;BMP180;7865;50.918;4.510;2023-03-20T11:46:28;101399.00;;;15.30
15607;BMP180;7865;50.918;4.510;2023-03-20T11:51:30;101394.00;;;15.30
15607;BMP180;7865;50.918;4.510;2023-03-20T11:56:33;101402.00;;;15.50
15607;BMP180;7865;50.918;4.510;2023-03-20T12:01:45;101385.00;;;16.50
15607;BMP180;7865;50.918;4.510;2023-03-20T12:06:51;101382.00;;;18.90
15607;BMP180;7865;50.918;4.510;2023-03-20T12:11:59;101383.00;;;18.40
15607;BMP180;7865;50.918;4.510;2023-03-20T12:22:23;101391.00;;;15.50
15607;BMP180;7865;50.918;4.510;2023-03-20T12:27:41;101381.00;;;14.80
15607;BMP180;7865;50.918;4.510;2023-03-20T12:33:11;101369.00;;;14.40
15607;BMP180;7865;50.918;4.510;2023-03-20T12:38:34;101361.00;;;14.50
15607;BMP180;7865;50.918;4.510;2023-03-20T13:00:17;101352.00;;;16.00
15607;BMP180;7865;50.918;4.510;2023-03-20T13:05:33;101349.00;;;15.80
15607;BMP180;7865;50.918;4.510;2023-03-20T13:11:03;101350.00;;;15.70
15607;BMP180;7865;50.918;4.510;2023-03-20T13:16:36;101352.00;;;15.10
15607;BMP180;7865;50.918;4.510;2023-03-20T13:27:00;101330.00;;;14.20
15607;BMP180;7865;50.918;4.510;2023-03-20T13:32:37;101336.00;;;14.00
15607;BMP180;7865;50.918;4.510;2023-03-20T13:37:40;101327.00;;;14.80
15607;BMP180;7865;50.918;4.510;2023-03-20T13:43:19;101327.00;;;15.30
15607;BMP180;7865;50.918;4.510;2023-03-20T13:48:31;101327.00;;;14.80
15607;BMP180;7865;50.918;4.510;2023-03-20T13:53:54;101323.00;;;14.40
15607;BMP180;7865;50.918;4.510;2023-03-20T14:04:39;101328.00;;;13.90
15607;BMP180;7865;50.918;4.510;2023-03-20T14:09:42;101323.00;;;13.60
15607;BMP180;7865;50.918;4.510;2023-03-20T14:14:52;101316.00;;;13.60
15607;BMP180;7865;50.918;4.510;2023-03-20T14:19:56;101317.00;;;13.60
15607;BMP180;7865;50.918;4.510;2023-03-20T14:25:18;101305.00;;;14.00
15607;BMP180;7865;50.918;4.510;2023-03-20T14:35:44;101308.00;;;14.20
15607;BMP180;7865;50.918;4.510;2023-03-20T14:41:10;101303.00;;;14.20
15607;BMP180;7865;50.918;4.510;2023-03-20T14:51:43;101301.00;;;14.50
15607;BMP180;7865;50.918;4.510;2023-03-20T14:56:50;101292.00;;;14.20
15607;BMP180;7865;50.918;4.510;2023-03-20T15:01:59;101284.00;;;14.00
15607;BMP180;7865;50.918;4.510;2023-03-20T15:07:12;101279.00;;;13.80
15607;BMP180;7865;50.918;4.510;2023-03-20T15:12:22;101284.00;;;13.80
15607;BMP180;7865;50.918;4.510;2023-03-20T15:17:44;101278.00;;;13.70
15607;BMP180;7865;50.918;4.510;2023-03-20T15:22:54;101285.00;;;13.60
15607;BMP180;7865;50.918;4.510;2023-03-20T15:27:59;101269.00;;;13.90
15607;BMP180;7865;50.918;4.510;2023-03-20T15:33:01;101272.00;;;14.30
15607;BMP180;7865;50.918;4.510;2023-03-20T15:38:05;101262.00;;;13.90
15607;BMP180;7865;50.918;4.510;2023-03-20T15:43:13;101264.00;;;13.40
15607;BMP180;7865;50.918;4.510;2023-03-20T15:48:18;101253.00;;;13.60
15607;BMP180;7865;50.918;4.510;2023-03-20T15:53:41;101269.00;;;13.70
15607;BMP180;7865;50.918;4.510;2023-03-20T15:58:47;101256.00;;;13.40
15607;BMP180;7865;50.918;4.510;2023-03-20T16:03:56;101258.00;;;13.30
15607;BMP180;7865;50.918;4.510;2023-03-20T16:09:04;101246.00;;;13.00
15607;BMP180;7865;50.918;4.510;2023-03-20T16:14:15;101261.00;;;12.90
15607;BMP180;7865;50.918;4.510;2023-03-20T16:19:18;101271.00;;;12.70
15607;BMP180;7865;50.918;4.510;2023-03-20T16:24:30;101258.00;;;12.50
15607;BMP180;7865;50.918;4.510;2023-03-20T16:29:36;101249.00;;;12.50
15607;BMP180;7865;50.918;4.510;2023-03-20T16:34:49;101255.00;;;12.40
15607;BMP180;7865;50.918;4.510;2023-03-20T16:40:29;101272.00;;;12.20
15607;BMP180;7865;50.918;4.510;2023-03-20T16:45:34;101263.00;;;12.20
15607;BMP180;7865;50.918;4.510;2023-03-20T16:50:38;101262.00;;;12.20
15607;BMP180;7865;50.918;4.510;2023-03-20T16:55:46;101260.00;;;12.30
15607;BMP180;7865;50.918;4.510;2023-03-20T17:06:03;101265.00;;;12.20
15607;BMP180;7865;50.918;4.510;2023-03-20T17:11:11;101266.00;;;12.20
15607;BMP180;7865;50.918;4.510;2023-03-20T17:16:19;101256.00;;;12.10
15607;BMP180;7865;50.918;4.510;2023-03-20T17:21:21;101254.00;;;11.90
15607;BMP180;7865;50.918;4.510;2023-03-20T17:26:24;101262.00;;;11.90
15607;BMP180;7865;50.918;4.510;2023-03-20T17:31:26;101271.00;;;11.80
15607;BMP180;7865;50.918;4.510;2023-03-20T17:36:31;101278.00;;;11.70
15607;BMP180;7865;50.918;4.510;2023-03-20T17:41:33;101276.00;;;11.60
15607;BMP180;7865;50.918;4.510;2023-03-20T17:46:36;101285.00;;;11.50
15607;BMP180;7865;50.918;4.510;2023-03-20T17:51:57;101282.00;;;11.40
15607;BMP180;7865;50.918;4.510;2023-03-20T17:57:00;101274.00;;;11.30
15607;BMP180;7865;50.918;4.510;2023-03-20T18:02:03;101288.00;;;11.20
15607;BMP180;7865;50.918;4.510;2023-03-20T18:07:05;101280.00;;;11.20
15607;BMP180;7865;50.918;4.510;2023-03-20T18:12:15;101293.00;;;11.20
15607;BMP180;7865;50.918;4.510;2023-03-20T18:17:17;101305.00;;;11.20
15607;BMP180;7865;50.918;4.510;2023-03-20T18:22:19;101289.00;;;11.20
15607;BMP180;7865;50.918;4.510;2023-03-20T18:27:22;101280.00;;;11.20
15607;BMP180;7865;50.918;4.510;2023-03-20T18:32:24;101287.00;;;11.20
15607;BMP180;7865;50.918;4.510;2023-03-20T18:37:27;101282.00;;;11.20
15607;BMP180;7865;50.918;4.510;2023-03-20T18:42:29;101287.00;;;11.20
15607;BMP180;7865;50.918;4.510;2023-03-20T18:47:31;101298.00;;;11.10
15607;BMP180;7865;50.918;4.510;2023-03-20T18:52:33;101297.00;;;11.10
15607;BMP180;7865;50.918;4.510;2023-03-20T18:57:36;101285.00;;;11.10
15607;BMP180;7865;50.918;4.510;2023-03-20T19:02:44;101291.00;;;11.10
15607;BMP180;7865;50.918;4.510;2023-03-20T19:07:47;101285.00;;;11.10
15607;BMP180;7865;50.918;4.510;2023-03-20T19:12:49;101292.00;;;11.10
15607;BMP180;7865;50.918;4.510;2023-03-20T19:17:53;101294.00;;;11.10
15607;BMP180;7865;50.918;4.510;2023-03-20T19:22:55;101274.00;;;11.10
15607;BMP180;7865;50.918;4.510;2023-03-20T19:27:59;101275.00;;;11.10
15607;BMP180;7865;50.918;4.510;2023-03-20T19:33:02;101281.00;;;11.10
15607;BMP180;7865;50.918;4.510;2023-03-20T19:38:04;101278.00;;;11.10
15607;BMP180;7865;50.918;4.510;2023-03-20T19:43:07;101275.00;;;11.00
15607;BMP180;7865;50.918;4.510;2023-03-20T19:48:29;101276.00;;;11.00
15607;BMP180;7865;50.918;4.510;2023-03-20T19:53:51;101275.00;;;11.00
15607;BMP180;7865;50.918;4.510;2023-03-20T19:58:53;101274.00;;;11.00
15607;BMP180;7865;50.918;4.510;2023-03-20T20:03:55;101266.00;;;11.00
15607;BMP180;7865;50.918;4.510;2023-03-20T20:08:59;101272.00;;;10.90
15607;BMP180;7865;50.918;4.510;2023-03-20T20:14:02;101267.00;;;10.90
15607;BMP180;7865;50.918;4.510;2023-03-20T20:19:10;101256.00;;;10.90
15607;BMP180;7865;50.918;4.510;2023-03-20T20:24:12;101267.00;;;10.80
15607;BMP180;7865;50.918;4.510;2023-03-20T20:29:17;101263.00;;;10.80
15607;BMP180;7865;50.918;4.510;2023-03-20T20:34:19;101268.00;;;10.70
15607;BMP180;7865;50.918;4.510;2023-03-20T20:39:43;101270.00;;;10.70
15607;BMP180;7865;50.918;4.510;2023-03-20T20:44:46;101263.00;;;10.60
15607;BMP180;7865;50.918;4.510;2023-03-20T20:49:48;101265.00;;;10.60
15607;BMP180;7865;50.918;4.510;2023-03-20T20:54:51;101265.00;;;10.60
15607;BMP180;7865;50.918;4.510;2023-03-20T20:59:53;101258.00;;;10.50
15607;BMP180;7865;50.918;4.510;2023-03-20T21:05:00;101260.00;;;10.50
15607;BMP180;7865;50.918;4.510;2023-03-20T21:10:04;101262.00;;;10.50
15607;BMP180;7865;50.918;4.510;2023-03-20T21:15:06;101262.00;;;10.50
15607;BMP180;7865;50.918;4.510;2023-03-20T21:20:10;101267.00;;;10.40
15607;BMP180;7865;50.918;4.510;2023-03-20T21:25:12;101261.00;;;10.40
15607;BMP180;7865;50.918;4.510;2023-03-20T21:30:21;101269.00;;;10.40
15607;BMP180;7865;50.918;4.510;2023-03-20T21:35:23;101261.00;;;10.40
15607;BMP180;7865;50.918;4.510;2023-03-20T21:40:27;101274.00;;;10.40
15607;BMP180;7865;50.918;4.510;2023-03-20T21:45:29;101278.00;;;10.40
15607;BMP180;7865;50.918;4.510;2023-03-20T21:50:51;101277.00;;;10.20
15607;BMP180;7865;50.918;4.510;2023-03-20T21:56:13;101273.00;;;10.00
15607;BMP180;7865;50.918;4.510;2023-03-20T22:01:36;101271.00;;;9.90
15607;BMP180;7865;50.918;4.510;2023-03-20T22:06:58;101266.00;;;9.90
15607;BMP180;7865;50.918;4.510;2023-03-20T22:12:20;101255.00;;;9.90
15607;BMP180;7865;50.918;4.510;2023-03-20T22:17:42;101260.00;;;9.90
15607;BMP180;7865;50.918;4.510;2023-03-20T22:23:04;101254.00;;;9.90
15607;BMP180;7865;50.918;4.510;2023-03-20T22:28:28;101248.00;;;10.00
15607;BMP180;7865;50.918;4.510;2023-03-20T22:33:50;101249.00;;;10.00
15607;BMP180;7865;50.918;4.510;2023-03-20T22:39:12;101239.00;;;10.10
15607;BMP180;7865;50.918;4.510;2023-03-20T22:44:34;101233.00;;;10.10
15607;BMP180;7865;50.918;4.510;2023-03-20T22:49:57;101237.00;;;10.10
15607;BMP180;7865;50.918;4.510;2023-03-20T22:54:59;101221.00;;;10.10
15607;BMP180;7865;50.918;4.510;2023-03-20T23:00:02;101219.00;;;10.10
15607;BMP180;7865;50.918;4.510;2023-03-20T23:05:05;101210.00;;;10.10
15607;BMP180;7865;50.918;4.510;2023-03-20T23:10:08;101205.00;;;10.10
15607;BMP180;7865;50.918;4.510;2023-03-20T23:15:10;101194.00;;;10.10
15607;BMP180;7865;50.918;4.510;2023-03-20T23:20:12;101187.00;;;10.10
15607;BMP180;7865;50.918;4.510;2023-03-20T23:25:21;101195.00;;;10.10
15607;BMP180;7865;50.918;4.510;2023-03-20T23:30:39;101187.00;;;10.00
15607;BMP180;7865;50.918;4.510;2023-03-20T23:36:01;101180.00;;;10.00
15607;BMP180;7865;50.918;4.510;2023-03-20T23:41:19;101180.00;;;10.00
15607;BMP180;7865;50.918;4.510;2023-03-20T23:46:42;101178.00;;;10.00
15607;BMP180;7865;50.918;4.510;2023-03-20T23:51:44;101167.00;;;10.00
15607;BMP180;7865;50.918;4.510;2023-03-20T23:56:46;101166.00;;;9.90
